Terminal Aerodrome Forecast
Issued by NWS

Home | Current Version | Previous Version | Text Only | Print | Product List | Glossary On
Versions: 1 2 3 4 5 6 7 8 9 10 11 12
000
FTUS42 KILM 291730
TAFCRE
TAF
KCRE 291730Z 2918/3018 23011G18KT P6SM SCT040 SCT250
     FM300300 24005KT P6SM SCT250
     FM301200 23006KT 6SM HZ BKN250=

USA.gov is the U.S. government's official web portal to all federal, state and local government web resources and services.